sensor_id;sensor_type;location;lat;lon;timestamp;pressure;altitude;pressure_sealevel;temperature;humidity
48800;BME280;34611;47.964;7.982;2022-11-20T00:01:08;96360.75;;;13.49;64.55
48800;BME280;34611;47.964;7.982;2022-11-20T00:08:09;96358.00;;;13.51;64.56
48800;BME280;34611;47.964;7.982;2022-11-20T00:15:09;96358.94;;;13.50;64.60
48800;BME280;34611;47.964;7.982;2022-11-20T00:22:10;96372.84;;;13.50;64.67
48800;BME280;34611;47.964;7.982;2022-11-20T00:29:10;96371.84;;;13.51;64.56
48800;BME280;34611;47.964;7.982;2022-11-20T00:36:12;96379.69;;;13.51;64.56
48800;BME280;34611;47.964;7.982;2022-11-20T00:43:12;96376.25;;;13.51;64.60
48800;BME280;34611;47.964;7.982;2022-11-20T00:50:12;96372.66;;;13.52;64.66
48800;BME280;34611;47.964;7.982;2022-11-20T00:57:13;96370.06;;;13.52;64.58
48800;BME280;34611;47.964;7.982;2022-11-20T01:04:13;96375.28;;;13.52;64.60
48800;BME280;34611;47.964;7.982;2022-11-20T01:11:14;96376.13;;;13.52;64.79
48800;BME280;34611;47.964;7.982;2022-11-20T01:18:15;96375.28;;;13.52;64.76
48800;BME280;34611;47.964;7.982;2022-11-20T01:25:15;96378.72;;;13.52;64.60
48800;BME280;34611;47.964;7.982;2022-11-20T01:32:15;96379.53;;;13.53;64.71
48800;BME280;34611;47.964;7.982;2022-11-20T01:39:25;96375.13;;;13.53;64.88
48800;BME280;34611;47.964;7.982;2022-11-20T01:46:26;96378.72;;;13.52;64.87
48800;BME280;34611;47.964;7.982;2022-11-20T01:53:28;96377.88;;;13.52;64.88
48800;BME280;34611;47.964;7.982;2022-11-20T02:00:29;96383.78;;;13.54;64.93
48800;BME280;34611;47.964;7.982;2022-11-20T02:07:30;96380.34;;;13.53;64.83
48800;BME280;34611;47.964;7.982;2022-11-20T02:14:30;96376.94;;;13.53;64.88
48800;BME280;34611;47.964;7.982;2022-11-20T02:21:42;96376.94;;;13.53;64.78
48800;BME280;34611;47.964;7.982;2022-11-20T02:28:44;96367.28;;;13.53;64.87
48800;BME280;34611;47.964;7.982;2022-11-20T02:35:45;96378.53;;;13.54;64.88
48800;BME280;34611;47.964;7.982;2022-11-20T02:42:46;96366.47;;;13.53;64.87
48800;BME280;34611;47.964;7.982;2022-11-20T02:49:46;96368.94;;;13.54;64.92
48800;BME280;34611;47.964;7.982;2022-11-20T02:56:46;96352.44;;;13.54;64.88
48800;BME280;34611;47.964;7.982;2022-11-20T03:03:47;96362.88;;;13.54;64.73
48800;BME280;34611;47.964;7.982;2022-11-20T03:10:48;96370.72;;;13.54;64.81
48800;BME280;34611;47.964;7.982;2022-11-20T03:17:48;96372.50;;;13.53;65.00
48800;BME280;34611;47.964;7.982;2022-11-20T03:24:49;96363.72;;;13.54;64.97
48800;BME280;34611;47.964;7.982;2022-11-20T03:31:49;96357.66;;;13.54;64.87
48800;BME280;34611;47.964;7.982;2022-11-20T03:38:49;96362.88;;;13.54;64.97
48800;BME280;34611;47.964;7.982;2022-11-20T03:45:49;96357.66;;;13.54;64.81
48800;BME280;34611;47.964;7.982;2022-11-20T03:52:50;96374.16;;;13.54;64.92
48800;BME280;34611;47.964;7.982;2022-11-20T03:59:50;96374.16;;;13.54;64.94
48800;BME280;34611;47.964;7.982;2022-11-20T04:06:50;96380.19;;;13.55;64.93
48800;BME280;34611;47.964;7.982;2022-11-20T04:13:51;96381.16;;;13.54;64.90
48800;BME280;34611;47.964;7.982;2022-11-20T04:20:52;96371.56;;;13.54;64.96
48800;BME280;34611;47.964;7.982;2022-11-20T04:27:52;96373.31;;;13.54;65.03
48800;BME280;34611;47.964;7.982;2022-11-20T04:34:52;96375.78;;;13.55;65.01
48800;BME280;34611;47.964;7.982;2022-11-20T04:41:53;96363.72;;;13.54;64.92
48800;BME280;34611;47.964;7.982;2022-11-20T04:49:13;96359.31;;;13.55;65.07
48800;BME280;34611;47.964;7.982;2022-11-20T04:56:13;96369.75;;;13.55;64.93
48800;BME280;34611;47.964;7.982;2022-11-20T05:03:14;96355.88;;;13.54;64.71
48800;BME280;34611;47.964;7.982;2022-11-20T05:10:14;96361.91;;;13.55;65.00
48800;BME280;34611;47.964;7.982;2022-11-20T05:17:14;96369.75;;;13.55;65.08
48800;BME280;34611;47.964;7.982;2022-11-20T05:24:15;96369.75;;;13.55;64.89
48800;BME280;34611;47.964;7.982;2022-11-20T05:31:16;96364.53;;;13.55;65.11
48800;BME280;34611;47.964;7.982;2022-11-20T05:38:16;96367.94;;;13.55;65.10
48800;BME280;34611;47.964;7.982;2022-11-20T05:45:17;96364.53;;;13.55;65.12
48800;BME280;34611;47.964;7.982;2022-11-20T05:52:17;96367.00;;;13.56;64.97
48800;BME280;34611;47.964;7.982;2022-11-20T05:59:17;96363.72;;;13.54;65.14
48800;BME280;34611;47.964;7.982;2022-11-20T06:06:18;96365.34;;;13.55;65.01
48800;BME280;34611;47.964;7.982;2022-11-20T06:13:19;96359.31;;;13.55;65.07
48800;BME280;34611;47.964;7.982;2022-11-20T06:20:19;96371.38;;;13.56;65.15
48800;BME280;34611;47.964;7.982;2022-11-20T06:27:20;96360.94;;;13.56;65.17
48800;BME280;34611;47.964;7.982;2022-11-20T06:34:20;96362.72;;;13.55;65.14
48800;BME280;34611;47.964;7.982;2022-11-20T06:41:20;96364.69;;;13.62;65.01
48800;BME280;34611;47.964;7.982;2022-11-20T06:48:21;96377.25;;;13.58;65.63
48800;BME280;34611;47.964;7.982;2022-11-20T06:55:22;96382.47;;;13.58;65.63
48800;BME280;34611;47.964;7.982;2022-11-20T07:02:22;96378.75;;;13.61;65.68
48800;BME280;34611;47.964;7.982;2022-11-20T07:09:22;96380.72;;;13.59;65.53
48800;BME280;34611;47.964;7.982;2022-11-20T07:16:22;96390.31;;;13.58;65.56
48800;BME280;34611;47.964;7.982;2022-11-20T07:23:23;96406.81;;;13.59;65.43
48800;BME280;34611;47.964;7.982;2022-11-20T07:30:23;96405.97;;;13.58;65.39
48800;BME280;34611;47.964;7.982;2022-11-20T07:37:23;96410.41;;;13.57;65.47
48800;BME280;34611;47.964;7.982;2022-11-20T07:44:24;96405.16;;;13.57;65.56
48800;BME280;34611;47.964;7.982;2022-11-20T07:51:24;96406.97;;;13.57;65.57
48800;BME280;34611;47.964;7.982;2022-11-20T07:58:25;96405.97;;;13.58;65.37
48800;BME280;34611;47.964;7.982;2022-11-20T08:05:26;96417.28;;;13.59;65.44
48800;BME280;34611;47.964;7.982;2022-11-20T08:12:26;96423.31;;;13.59;65.29
48800;BME280;34611;47.964;7.982;2022-11-20T08:19:45;96445.16;;;13.58;65.49
48800;BME280;34611;47.964;7.982;2022-11-20T08:26:45;96453.00;;;13.58;65.43
48800;BME280;34611;47.964;7.982;2022-11-20T08:33:45;96452.03;;;13.59;65.47
48800;BME280;34611;47.964;7.982;2022-11-20T08:40:46;96455.59;;;13.58;65.29
48800;BME280;34611;47.964;7.982;2022-11-20T08:48:06;96461.66;;;13.59;65.32
48800;BME280;34611;47.964;7.982;2022-11-20T08:55:06;96462.31;;;13.61;65.53
48800;BME280;34611;47.964;7.982;2022-11-20T09:02:07;96462.47;;;13.59;65.48
48800;BME280;34611;47.964;7.982;2022-11-20T09:09:07;96472.91;;;13.59;65.53
48800;BME280;34611;47.964;7.982;2022-11-20T09:16:08;96482.56;;;13.59;65.50
48800;BME280;34611;47.964;7.982;2022-11-20T09:23:08;96481.72;;;13.58;65.45
48800;BME280;34611;47.964;7.982;2022-11-20T09:30:09;96489.56;;;13.58;65.57
48800;BME280;34611;47.964;7.982;2022-11-20T09:37:09;96494.78;;;13.58;65.52
48800;BME280;34611;47.964;7.982;2022-11-20T09:51:21;96493.00;;;13.59;65.45
48800;BME280;34611;47.964;7.982;2022-11-20T09:58:31;96499.19;;;13.57;65.50
48800;BME280;34611;47.964;7.982;2022-11-20T10:05:42;96506.22;;;13.57;65.50
48800;BME280;34611;47.964;7.982;2022-11-20T10:12:55;96507.84;;;13.58;65.50
48800;BME280;34611;47.964;7.982;2022-11-20T10:34:26;96486.94;;;13.58;65.45
48800;BME280;34611;47.964;7.982;2022-11-20T10:41:30;96491.34;;;13.57;65.24
48800;BME280;34611;47.964;7.982;2022-11-20T10:48:32;96482.72;;;13.57;65.50
48800;BME280;34611;47.964;7.982;2022-11-20T10:55:39;96478.28;;;13.57;65.52
48800;BME280;34611;47.964;7.982;2022-11-20T11:02:47;96466.03;;;13.58;65.44
48800;BME280;34611;47.964;7.982;2022-11-20T11:09:49;96460.81;;;13.58;65.53
48800;BME280;34611;47.964;7.982;2022-11-20T11:16:51;96456.44;;;13.59;65.54
48800;BME280;34611;47.964;7.982;2022-11-20T11:24:02;96445.34;;;13.56;65.35
48800;BME280;34611;47.964;7.982;2022-11-20T11:31:02;96433.75;;;13.59;65.38
48800;BME280;34611;47.964;7.982;2022-11-20T11:38:06;96418.22;;;13.57;65.39
48800;BME280;34611;47.964;7.982;2022-11-20T11:45:07;96413.81;;;13.58;65.38
48800;BME280;34611;47.964;7.982;2022-11-20T11:52:10;96392.13;;;13.57;65.39
48800;BME280;34611;47.964;7.982;2022-11-20T11:59:21;96373.84;;;13.57;65.58
48800;BME280;34611;47.964;7.982;2022-11-20T12:06:24;96377.25;;;13.58;65.53
48800;BME280;34611;47.964;7.982;2022-11-20T12:13:36;96366.81;;;13.58;65.34
48800;BME280;34611;47.964;7.982;2022-11-20T12:20:40;96358.16;;;13.57;65.52
48800;BME280;34611;47.964;7.982;2022-11-20T12:56:57;96366.81;;;13.58;65.57
48800;BME280;34611;47.964;7.982;2022-11-20T13:04:02;96369.41;;;13.58;65.43
48800;BME280;34611;47.964;7.982;2022-11-20T13:18:17;96360.63;;;13.59;65.54
48800;BME280;34611;47.964;7.982;2022-11-20T13:25:30;96343.31;;;13.58;65.52
48800;BME280;34611;47.964;7.982;2022-11-20T13:32:31;96332.03;;;13.57;65.25
48800;BME280;34611;47.964;7.982;2022-11-20T13:39:35;96319.81;;;13.58;65.54
48800;BME280;34611;47.964;7.982;2022-11-20T13:46:43;96324.06;;;13.59;65.55
48800;BME280;34611;47.964;7.982;2022-11-20T14:01:29;96318.84;;;13.59;65.39
48800;BME280;34611;47.964;7.982;2022-11-20T14:08:05;96314.56;;;13.58;65.47
48800;BME280;34611;47.964;7.982;2022-11-20T14:15:22;96311.16;;;13.57;65.44
48800;BME280;34611;47.964;7.982;2022-11-20T14:22:24;96294.53;;;13.59;65.53
48800;BME280;34611;47.964;7.982;2022-11-20T14:29:43;96291.06;;;13.58;65.62
48800;BME280;34611;47.964;7.982;2022-11-20T14:36:44;96280.63;;;13.58;65.50
48800;BME280;34611;47.964;7.982;2022-11-20T14:43:45;96261.53;;;13.57;65.43
48800;BME280;34611;47.964;7.982;2022-11-20T14:50:46;96243.25;;;13.57;65.54
48800;BME280;34611;47.964;7.982;2022-11-20T14:57:53;96227.59;;;13.57;65.63
48800;BME280;34611;47.964;7.982;2022-11-20T15:04:58;96228.41;;;13.58;65.55
48800;BME280;34611;47.964;7.982;2022-11-20T15:12:02;96227.59;;;13.57;65.47
48800;BME280;34611;47.964;7.982;2022-11-20T15:19:03;96229.25;;;13.59;65.45
48800;BME280;34611;47.964;7.982;2022-11-20T15:26:10;96224.00;;;13.59;65.58
48800;BME280;34611;47.964;7.982;2022-11-20T15:33:10;96211.75;;;13.59;65.45
48800;BME280;34611;47.964;7.982;2022-11-20T15:40:11;96215.34;;;13.58;65.58
48800;BME280;34611;47.964;7.982;2022-11-20T15:47:12;96187.59;;;13.57;65.64
48800;BME280;34611;47.964;7.982;2022-11-20T15:54:16;96190.06;;;13.59;65.42
48800;BME280;34611;47.964;7.982;2022-11-20T16:01:18;96166.72;;;13.57;65.59
48800;BME280;34611;47.964;7.982;2022-11-20T16:08:19;96185.66;;;13.59;65.68
48800;BME280;34611;47.964;7.982;2022-11-20T16:15:20;96193.63;;;13.57;65.58
48800;BME280;34611;47.964;7.982;2022-11-20T16:22:38;96203.94;;;13.59;65.54
48800;BME280;34611;47.964;7.982;2022-11-20T16:29:39;96212.56;;;13.60;65.46
48800;BME280;34611;47.964;7.982;2022-11-20T16:36:39;96207.19;;;13.69;65.34
48800;BME280;34611;47.964;7.982;2022-11-20T16:50:48;96179.44;;;13.60;65.69
48800;BME280;34611;47.964;7.982;2022-11-20T16:57:49;96207.03;;;13.63;65.69
48800;BME280;34611;47.964;7.982;2022-11-20T17:04:49;96191.19;;;13.64;65.65
48800;BME280;34611;47.964;7.982;2022-11-20T17:11:49;96184.66;;;13.60;65.81
48800;BME280;34611;47.964;7.982;2022-11-20T17:18:50;96192.50;;;13.60;65.61
48800;BME280;34611;47.964;7.982;2022-11-20T17:25:50;96197.72;;;13.60;65.73
48800;BME280;34611;47.964;7.982;2022-11-20T17:32:50;96195.09;;;13.60;65.60
48800;BME280;34611;47.964;7.982;2022-11-20T17:39:50;96196.91;;;13.68;65.63
48800;BME280;34611;47.964;7.982;2022-11-20T17:46:51;96205.56;;;13.60;65.74
48800;BME280;34611;47.964;7.982;2022-11-20T17:53:52;96201.97;;;13.61;65.67
48800;BME280;34611;47.964;7.982;2022-11-20T18:00:53;96176.81;;;13.60;65.65
48800;BME280;34611;47.964;7.982;2022-11-20T18:07:53;96176.81;;;13.60;65.61
48800;BME280;34611;47.964;7.982;2022-11-20T18:14:53;96179.44;;;13.60;65.72
48800;BME280;34611;47.964;7.982;2022-11-20T18:21:54;96200.31;;;13.60;65.75
48800;BME280;34611;47.964;7.982;2022-11-20T18:28:54;96214.22;;;13.61;65.69
48800;BME280;34611;47.964;7.982;2022-11-20T18:35:54;96206.53;;;13.59;65.65
48800;BME280;34611;47.964;7.982;2022-11-20T18:42:54;96223.81;;;13.60;65.61
48800;BME280;34611;47.964;7.982;2022-11-20T18:50:13;96207.50;;;13.58;65.88
48800;BME280;34611;47.964;7.982;2022-11-20T18:57:17;96187.47;;;13.59;65.49
48800;BME280;34611;47.964;7.982;2022-11-20T19:04:18;96181.38;;;13.58;65.79
48800;BME280;34611;47.964;7.982;2022-11-20T19:11:18;96181.38;;;13.58;65.73
48800;BME280;34611;47.964;7.982;2022-11-20T19:18:18;96180.59;;;13.57;65.74
48800;BME280;34611;47.964;7.982;2022-11-20T19:25:19;96176.16;;;13.58;65.59
48800;BME280;34611;47.964;7.982;2022-11-20T19:32:19;96163.94;;;13.59;65.64
48800;BME280;34611;47.964;7.982;2022-11-20T19:39:19;96164.91;;;13.57;65.68
48800;BME280;34611;47.964;7.982;2022-11-20T19:46:20;96176.34;;;13.56;65.76
48800;BME280;34611;47.964;7.982;2022-11-20T19:53:20;96173.75;;;13.56;65.61
48800;BME280;34611;47.964;7.982;2022-11-20T20:00:20;96172.91;;;13.56;65.67
48800;BME280;34611;47.964;7.982;2022-11-20T20:07:21;96165.06;;;13.56;65.80
48800;BME280;34611;47.964;7.982;2022-11-20T20:14:21;96177.00;;;13.67;66.21
48800;BME280;34611;47.964;7.982;2022-11-20T20:21:21;96177.00;;;13.59;66.11
48800;BME280;34611;47.964;7.982;2022-11-20T20:28:22;96192.84;;;13.57;66.05
48800;BME280;34611;47.964;7.982;2022-11-20T20:35:22;96206.69;;;13.57;65.96
48800;BME280;34611;47.964;7.982;2022-11-20T20:42:22;96217.94;;;13.58;65.90
48800;BME280;34611;47.964;7.982;2022-11-20T20:49:23;96225.13;;;13.56;66.05
48800;BME280;34611;47.964;7.982;2022-11-20T20:56:23;96233.31;;;13.61;65.74
48800;BME280;34611;47.964;7.982;2022-11-20T21:03:23;96246.53;;;13.60;66.24
48800;BME280;34611;47.964;7.982;2022-11-20T21:10:23;96224.00;;;13.59;66.21
48800;BME280;34611;47.964;7.982;2022-11-20T21:17:25;96216.34;;;13.57;66.21
48800;BME280;34611;47.964;7.982;2022-11-20T21:24:26;96228.59;;;13.56;66.21
48800;BME280;34611;47.964;7.982;2022-11-20T21:31:26;96224.16;;;13.57;65.97
48800;BME280;34611;47.964;7.982;2022-11-20T21:38:27;96211.13;;;13.57;66.13
48800;BME280;34611;47.964;7.982;2022-11-20T21:45:27;96217.94;;;13.58;65.91
48800;BME280;34611;47.964;7.982;2022-11-20T21:52:28;96209.47;;;13.56;66.00
48800;BME280;34611;47.964;7.982;2022-11-20T21:59:28;96211.91;;;13.57;65.97
48800;BME280;34611;47.964;7.982;2022-11-20T22:06:29;96205.88;;;13.57;65.98
48800;BME280;34611;47.964;7.982;2022-11-20T22:13:31;96216.34;;;13.57;65.87
48800;BME280;34611;47.964;7.982;2022-11-20T22:20:51;96217.16;;;13.57;66.11
48800;BME280;34611;47.964;7.982;2022-11-20T22:27:51;96210.31;;;13.56;66.23
48800;BME280;34611;47.964;7.982;2022-11-20T22:34:51;96236.22;;;13.58;65.96
48800;BME280;34611;47.964;7.982;2022-11-20T22:41:51;96230.34;;;13.56;65.97
48800;BME280;34611;47.964;7.982;2022-11-20T22:48:56;96227.75;;;13.56;65.99
48800;BME280;34611;47.964;7.982;2022-11-20T22:55:56;96238.84;;;13.58;66.03
48800;BME280;34611;47.964;7.982;2022-11-20T23:02:56;96237.38;;;13.55;66.10
48800;BME280;34611;47.964;7.982;2022-11-20T23:09:57;96234.63;;;13.57;65.99
48800;BME280;34611;47.964;7.982;2022-11-20T23:16:57;96239.03;;;13.56;66.10
48800;BME280;34611;47.964;7.982;2022-11-20T23:23:57;96243.59;;;13.54;66.16
48800;BME280;34611;47.964;7.982;2022-11-20T23:30:58;96230.34;;;13.56;66.04
48800;BME280;34611;47.964;7.982;2022-11-20T23:37:59;96231.19;;;13.56;66.28
48800;BME280;34611;47.964;7.982;2022-11-20T23:45:00;96234.63;;;13.57;66.09
48800;BME280;34611;47.964;7.982;2022-11-20T23:52:00;96225.97;;;13.56;66.17
48800;BME280;34611;47.964;7.982;2022-11-20T23:59:00;96220.75;;;13.56;66.13
